createdAt,value
2022-12-08T00:01:05.880Z,14.68
2022-12-08T00:03:34.035Z,13.57
2022-12-08T00:06:21.210Z,14.88
2022-12-08T00:09:08.440Z,14.10
2022-12-08T00:11:36.612Z,15.13
2022-12-08T00:14:04.546Z,16.13
2022-12-08T00:16:32.854Z,16.60
2022-12-08T00:19:02.988Z,15.95
2022-12-08T00:21:30.750Z,16.00
2022-12-08T00:23:59.862Z,17.33
2022-12-08T00:26:27.593Z,17.05
2022-12-08T00:28:55.297Z,17.38
2022-12-08T00:31:23.055Z,17.40
2022-12-08T00:33:50.807Z,15.52
2022-12-08T00:36:18.523Z,15.57
2022-12-08T00:38:48.295Z,16.88
2022-12-08T00:41:40.161Z,17.17
2022-12-08T00:44:08.010Z,16.48
2022-12-08T00:46:37.965Z,16.73
2022-12-08T00:49:06.225Z,16.15
2022-12-08T00:51:34.419Z,16.92
2022-12-08T00:54:02.168Z,16.13
2022-12-08T00:56:31.629Z,16.10
2022-12-08T00:58:59.591Z,14.63
2022-12-08T01:01:27.830Z,15.07
2022-12-08T01:03:55.630Z,16.13
2022-12-08T01:06:23.659Z,16.17
2022-12-08T01:08:51.382Z,16.10
2022-12-08T01:11:20.555Z,15.50
2022-12-08T01:13:52.212Z,16.27
2022-12-08T01:16:21.718Z,15.23
2022-12-08T01:18:49.905Z,15.82
2022-12-08T01:21:17.708Z,14.90
2022-12-08T01:23:45.844Z,16.42
2022-12-08T01:26:15.285Z,16.95
2022-12-08T01:28:43.717Z,15.95
2022-12-08T01:31:15.710Z,16.08
2022-12-08T01:33:44.421Z,15.75
2022-12-08T01:36:20.862Z,16.08
2022-12-08T01:38:48.816Z,17.13
2022-12-08T01:41:17.846Z,17.23
2022-12-08T01:43:59.210Z,16.60
2022-12-08T01:46:32.157Z,17.00
2022-12-08T01:49:04.679Z,18.08
2022-12-08T01:51:35.642Z,17.52
2022-12-08T01:54:08.171Z,16.85
2022-12-08T01:56:42.638Z,17.73
2022-12-08T01:59:12.047Z,16.40
2022-12-08T02:01:41.252Z,16.42
2022-12-08T02:04:11.746Z,16.88
2022-12-08T02:06:42.902Z,16.30
2022-12-08T02:09:11.025Z,15.00
2022-12-08T02:11:38.731Z,15.82
2022-12-08T02:14:09.337Z,15.70
2022-12-08T02:16:46.583Z,16.45
2022-12-08T02:19:39.149Z,15.73
2022-12-08T02:22:14.397Z,15.20
2022-12-08T02:24:50.585Z,16.27
2022-12-08T02:27:31.976Z,16.10
2022-12-08T02:30:12.679Z,16.75
2022-12-08T02:33:29.129Z,15.60
2022-12-08T02:36:02.915Z,16.35
2022-12-08T02:38:42.480Z,15.85
2022-12-08T02:41:21.967Z,14.77
2022-12-08T02:43:57.562Z,14.85
2022-12-08T02:46:34.308Z,15.38
2022-12-08T02:49:03.424Z,15.77
2022-12-08T02:51:32.490Z,17.23
2022-12-08T02:54:01.700Z,15.57
2022-12-08T02:56:49.585Z,16.40
2022-12-08T02:59:37.264Z,16.35
2022-12-08T03:02:26.830Z,16.48
2022-12-08T03:05:03.613Z,15.77
2022-12-08T03:07:36.579Z,15.02
2022-12-08T03:10:13.903Z,15.60
2022-12-08T03:12:45.961Z,16.60
2022-12-08T03:15:17.002Z,16.77
2022-12-08T03:17:50.162Z,17.02
2022-12-08T03:20:22.686Z,16.85
2022-12-08T03:22:57.277Z,16.05
2022-12-08T03:25:27.141Z,15.90
2022-12-08T03:27:55.290Z,16.55
2022-12-08T03:30:23.194Z,16.02
2022-12-08T03:32:54.003Z,16.33
2022-12-08T03:35:25.841Z,15.35
2022-12-08T03:38:03.247Z,17.15
2022-12-08T03:40:30.928Z,16.70
2022-12-08T03:42:58.637Z,15.63
2022-12-08T03:45:26.669Z,17.65
2022-12-08T03:47:57.337Z,17.05
2022-12-08T03:50:25.435Z,17.38
2022-12-08T03:52:54.596Z,17.17
2022-12-08T03:55:22.453Z,17.67
2022-12-08T03:57:50.119Z,16.77
2022-12-08T04:00:18.459Z,18.00
2022-12-08T04:02:46.273Z,18.30
2022-12-08T04:05:14.037Z,18.60
2022-12-08T04:07:44.228Z,17.38
2022-12-08T04:10:13.543Z,17.05
2022-12-08T04:12:41.242Z,15.93
2022-12-08T04:15:10.390Z,15.98
2022-12-08T04:17:40.628Z,15.98
2022-12-08T04:20:08.993Z,16.08
2022-12-08T04:22:36.681Z,16.02
2022-12-08T04:25:04.823Z,16.77
2022-12-08T04:27:33.893Z,17.88
2022-12-08T04:30:01.816Z,17.10
2022-12-08T04:32:29.707Z,16.13
2022-12-08T04:34:57.499Z,19.30
2022-12-08T04:37:27.330Z,16.67
2022-12-08T04:39:55.136Z,16.98
2022-12-08T04:42:25.372Z,18.15
2022-12-08T04:44:54.449Z,17.05
2022-12-08T04:47:22.206Z,18.90
2022-12-08T04:49:49.903Z,17.27
2022-12-08T04:52:17.703Z,17.95
2022-12-08T04:54:45.457Z,17.67
2022-12-08T04:57:13.187Z,16.85
2022-12-08T04:59:40.994Z,17.42
2022-12-08T05:02:10.273Z,17.75
2022-12-08T05:04:38.193Z,17.73
2022-12-08T05:07:06.695Z,18.85
2022-12-08T05:09:34.510Z,19.25
2022-12-08T05:12:11.076Z,17.98
2022-12-08T05:14:38.856Z,17.58
2022-12-08T05:17:09.756Z,16.70
2022-12-08T05:19:39.142Z,19.20
2022-12-08T05:22:06.961Z,18.40
2022-12-08T05:24:34.749Z,16.88
2022-12-08T05:27:02.470Z,17.98
2022-12-08T05:29:30.144Z,16.67
2022-12-08T05:31:57.913Z,18.85
2022-12-08T05:34:25.881Z,16.20
2022-12-08T05:36:57.302Z,17.27
2022-12-08T05:39:25.033Z,16.50
2022-12-08T05:41:52.699Z,16.38
2022-12-08T05:44:20.428Z,16.45
2022-12-08T05:46:48.102Z,17.80
2022-12-08T05:49:15.860Z,17.40
2022-12-08T05:51:43.660Z,18.02
2022-12-08T05:54:12.746Z,17.00
2022-12-08T05:56:40.501Z,16.50
2022-12-08T05:59:08.547Z,18.00
2022-12-08T06:01:37.072Z,15.95
2022-12-08T06:04:05.937Z,16.73
2022-12-08T06:06:38.818Z,17.20
2022-12-08T06:09:07.487Z,17.10
2022-12-08T06:11:39.673Z,15.98
2022-12-08T06:14:11.864Z,16.45
2022-12-08T06:16:39.909Z,15.88
2022-12-08T06:19:07.692Z,15.77
2022-12-08T06:21:35.519Z,16.17
2022-12-08T06:24:03.212Z,16.02
2022-12-08T06:26:32.435Z,15.68
2022-12-08T06:29:01.710Z,16.58
2022-12-08T06:31:29.600Z,17.00
2022-12-08T06:33:57.616Z,17.10
2022-12-08T06:36:28.366Z,16.63
2022-12-08T06:38:56.133Z,16.85
2022-12-08T06:41:26.577Z,17.33
2022-12-08T06:43:57.095Z,15.88
2022-12-08T06:46:26.337Z,17.90
2022-12-08T06:48:54.365Z,16.17
2022-12-08T06:51:23.511Z,15.80
2022-12-08T06:53:51.466Z,17.30
2022-12-08T06:56:20.498Z,17.33
2022-12-08T06:58:52.300Z,17.52
2022-12-08T07:01:20.755Z,17.10
2022-12-08T07:03:50.046Z,16.08
2022-12-08T07:06:20.593Z,16.40
2022-12-08T07:08:49.985Z,16.40
2022-12-08T07:11:21.849Z,16.60
2022-12-08T07:13:50.491Z,18.52
2022-12-08T07:16:18.303Z,17.60
2022-12-08T07:18:46.111Z,16.83
2022-12-08T07:21:18.227Z,18.10
2022-12-08T07:23:50.222Z,19.52
2022-12-08T07:26:21.898Z,18.67
2022-12-08T07:28:49.664Z,18.40
2022-12-08T07:31:20.089Z,19.83
2022-12-08T07:33:50.718Z,20.42
2022-12-08T07:36:19.951Z,20.60
2022-12-08T07:38:48.024Z,20.15
2022-12-08T07:41:19.814Z,18.33
2022-12-08T07:43:47.589Z,19.30
2022-12-08T07:46:17.085Z,18.38
2022-12-08T07:48:46.201Z,18.00
2022-12-08T07:51:15.713Z,16.60
2022-12-08T07:53:53.200Z,18.02
2022-12-08T07:56:21.956Z,16.65
2022-12-08T07:58:50.163Z,17.63
2022-12-08T08:01:23.544Z,16.52
2022-12-08T08:03:51.686Z,17.17
2022-12-08T08:06:19.396Z,15.77
2022-12-08T08:08:48.680Z,15.18
2022-12-08T08:11:20.809Z,14.30
2022-12-08T08:13:50.550Z,14.02
2022-12-08T08:16:19.544Z,13.50
2022-12-08T08:18:48.248Z,14.18
2022-12-08T08:21:43.674Z,13.45
2022-12-08T08:24:05.889Z,13.27
2022-12-08T08:26:33.683Z,13.20
2022-12-08T08:29:03.148Z,12.23
2022-12-08T08:31:31.026Z,12.38
2022-12-08T08:34:00.664Z,12.82
2022-12-08T08:36:28.377Z,11.30
2022-12-08T08:38:56.118Z,11.50
2022-12-08T08:41:25.255Z,11.27
2022-12-08T08:43:56.260Z,11.57
2022-12-08T08:46:24.056Z,11.07
2022-12-08T08:48:51.793Z,10.80
2022-12-08T08:51:19.602Z,10.93
2022-12-08T08:53:47.380Z,11.05
2022-12-08T08:56:18.393Z,9.30
2022-12-08T08:58:51.656Z,9.82
2022-12-08T09:01:21.258Z,10.18
2022-12-08T09:03:53.291Z,9.98
2022-12-08T09:06:21.671Z,9.50
2022-12-08T09:08:50.328Z,10.18
2022-12-08T09:11:19.006Z,9.65
2022-12-08T09:13:50.596Z,9.25
2022-12-08T09:16:19.434Z,9.70
2022-12-08T09:18:48.287Z,10.10
2022-12-08T09:21:22.266Z,10.57
2022-12-08T09:23:50.470Z,10.32
2022-12-08T09:26:18.352Z,10.18
2022-12-08T09:28:46.668Z,10.68
2022-12-08T09:31:16.208Z,11.50
2022-12-08T09:33:44.234Z,10.80
2022-12-08T09:36:12.618Z,10.90
2022-12-08T09:38:40.869Z,11.57
2022-12-08T09:41:37.875Z,11.88
2022-12-08T09:44:27.874Z,11.30
2022-12-08T09:49:37.677Z,9.63
2022-12-08T09:52:07.076Z,10.05
2022-12-08T09:54:36.845Z,9.77
2022-12-08T09:57:08.637Z,9.35
2022-12-08T09:59:36.875Z,10.05
2022-12-08T10:02:20.250Z,9.30
2022-12-08T10:04:48.173Z,9.02
2022-12-08T10:07:21.912Z,9.50
2022-12-08T10:09:55.585Z,11.65
2022-12-08T10:12:28.020Z,10.85
2022-12-08T10:15:05.161Z,10.88
2022-12-08T10:17:37.970Z,12.63
2022-12-08T10:20:13.393Z,11.95
2022-12-08T10:22:44.725Z,11.70
2022-12-08T10:25:17.448Z,11.77
2022-12-08T10:27:45.544Z,11.75
2022-12-08T10:30:14.756Z,11.73
2022-12-08T10:32:47.600Z,11.23
2022-12-08T10:35:17.407Z,12.65
2022-12-08T10:37:57.318Z,12.60
2022-12-08T10:40:28.116Z,12.27
2022-12-08T10:42:59.000Z,12.82
2022-12-08T10:45:29.133Z,12.52
2022-12-08T10:48:03.350Z,12.18
2022-12-08T10:50:36.861Z,12.73
2022-12-08T10:53:14.691Z,11.25
2022-12-08T10:55:45.230Z,11.13
2022-12-08T10:58:27.329Z,13.38
2022-12-08T11:00:57.430Z,12.73
2022-12-08T11:03:29.834Z,12.95
2022-12-08T11:06:05.395Z,13.20
2022-12-08T11:08:48.144Z,12.32
2022-12-08T11:11:17.001Z,13.05
2022-12-08T11:13:44.863Z,12.65
2022-12-08T11:16:16.524Z,12.00
2022-12-08T11:18:49.825Z,12.40
2022-12-08T11:21:19.776Z,13.50
2022-12-08T11:23:50.642Z,12.68
2022-12-08T11:26:24.870Z,12.35
2022-12-08T11:28:52.856Z,12.10
2022-12-08T11:31:29.501Z,12.40
2022-12-08T11:33:58.781Z,11.40
2022-12-08T11:36:30.067Z,10.30
2022-12-08T11:39:01.808Z,10.25
2022-12-08T11:41:34.610Z,8.00
2022-12-08T11:44:09.392Z,8.25
2022-12-08T11:46:44.224Z,8.85
2022-12-08T11:49:14.691Z,11.18
2022-12-08T11:51:54.122Z,19.63
2022-12-08T11:54:25.373Z,19.10
2022-12-08T11:56:56.970Z,18.73
2022-12-08T11:59:29.925Z,20.38
2022-12-08T12:01:59.387Z,21.13
2022-12-08T12:04:33.003Z,19.98
2022-12-08T12:07:33.136Z,20.35
2022-12-08T12:10:21.914Z,19.33
2022-12-08T12:13:04.750Z,19.38
2022-12-08T12:16:07.573Z,19.17
2022-12-08T12:18:45.434Z,18.20
2022-12-08T12:21:20.223Z,18.60
2022-12-08T12:23:52.927Z,18.52
2022-12-08T12:26:23.621Z,18.17
2022-12-08T12:28:54.577Z,17.85
2022-12-08T12:31:26.077Z,18.73
2022-12-08T12:33:58.080Z,17.08
2022-12-08T12:36:27.180Z,16.88
2022-12-08T12:39:04.207Z,19.27
2022-12-08T12:41:38.617Z,16.42
2022-12-08T12:44:40.733Z,17.90
2022-12-08T12:47:15.928Z,17.55
2022-12-08T12:50:05.692Z,17.75
2022-12-08T12:52:50.443Z,17.88
2022-12-08T12:55:51.006Z,18.98
2022-12-08T12:58:42.489Z,19.23
2022-12-08T13:01:45.400Z,18.25
2022-12-08T13:04:13.518Z,19.20
2022-12-08T13:06:45.237Z,18.05
2022-12-08T13:09:37.415Z,18.55
2022-12-08T13:12:11.429Z,16.58
2022-12-08T13:14:47.143Z,18.40
2022-12-08T13:17:22.306Z,17.20
2022-12-08T13:19:55.575Z,19.27
2022-12-08T13:23:00.657Z,17.75
2022-12-08T13:25:52.569Z,18.40
2022-12-08T13:28:24.822Z,17.55
2022-12-08T13:30:53.765Z,18.08
2022-12-08T13:33:27.237Z,18.13
2022-12-08T13:36:04.788Z,17.98
2022-12-08T13:38:36.150Z,18.92
2022-12-08T13:41:14.777Z,17.63
2022-12-08T13:44:10.555Z,17.98
2022-12-08T13:56:51.617Z,16.40
2022-12-08T13:58:26.089Z,18.85
2022-12-08T14:01:00.644Z,17.65
2022-12-08T14:03:28.642Z,17.20
2022-12-08T14:06:12.044Z,18.85
2022-12-08T14:09:02.621Z,17.80
2022-12-08T14:11:35.831Z,18.85
2022-12-08T14:14:08.691Z,19.02
2022-12-08T14:16:40.284Z,18.23
2022-12-08T14:19:17.597Z,19.85
2022-12-08T14:21:52.252Z,18.10
2022-12-08T14:24:20.080Z,20.20
2022-12-08T14:26:48.333Z,20.45
2022-12-08T14:29:42.455Z,19.60
2022-12-08T14:32:28.920Z,18.50
2022-12-08T14:35:00.005Z,19.20
2022-12-08T14:37:29.727Z,20.38
2022-12-08T14:40:03.983Z,20.30
2022-12-08T14:42:32.108Z,20.65
2022-12-08T14:45:05.368Z,19.48
2022-12-08T14:47:35.210Z,19.85
2022-12-08T14:50:04.982Z,19.50
2022-12-08T14:52:32.980Z,21.60
2022-12-08T14:55:00.861Z,20.67
2022-12-08T14:57:36.368Z,22.15
2022-12-08T15:02:49.222Z,21.13
2022-12-08T15:05:20.198Z,21.90
2022-12-08T15:07:51.142Z,21.85
2022-12-08T15:10:29.701Z,21.85
2022-12-08T15:13:02.872Z,22.15
2022-12-08T15:15:33.227Z,22.77
2022-12-08T15:18:13.347Z,21.85
2022-12-08T15:20:43.055Z,23.63
2022-12-08T15:23:23.620Z,22.25
2022-12-08T15:25:51.817Z,19.65
2022-12-08T15:28:25.199Z,18.55
2022-12-08T15:30:57.808Z,19.20
2022-12-08T15:33:25.700Z,18.63
2022-12-08T15:35:54.173Z,18.55
2022-12-08T15:38:25.785Z,18.65
2022-12-08T15:40:54.836Z,17.52
2022-12-08T15:43:23.402Z,19.17
2022-12-08T15:45:59.119Z,20.05
2022-12-08T15:48:30.800Z,18.38
2022-12-08T15:50:58.767Z,20.02
2022-12-08T15:53:31.492Z,17.95
2022-12-08T15:58:57.623Z,19.98
2022-12-08T16:01:26.083Z,18.30
2022-12-08T16:07:19.636Z,18.95
2022-12-08T16:09:36.969Z,19.35
2022-12-08T16:12:22.819Z,19.98
2022-12-08T16:17:39.349Z,18.70
2022-12-08T16:20:16.755Z,18.58
2022-12-08T16:22:54.499Z,19.02
2022-12-08T16:25:36.392Z,18.48
2022-12-08T16:28:45.158Z,19.67
2022-12-08T16:31:01.990Z,18.42
2022-12-08T16:33:31.852Z,20.02
2022-12-08T16:36:00.921Z,20.13
2022-12-08T16:38:28.660Z,20.42
2022-12-08T16:41:10.361Z,20.15
2022-12-08T16:43:38.139Z,17.17
2022-12-08T16:46:06.271Z,17.23
2022-12-08T16:48:34.240Z,19.35
2022-12-08T16:51:04.618Z,18.75
2022-12-08T16:53:32.510Z,19.70
2022-12-08T16:56:00.594Z,20.38
2022-12-08T16:58:29.999Z,21.48
2022-12-08T17:00:57.755Z,20.55
2022-12-08T17:03:26.005Z,20.58
2022-12-08T17:05:53.698Z,20.48
2022-12-08T17:08:22.845Z,20.33
2022-12-08T17:11:07.156Z,21.00
2022-12-08T17:13:35.093Z,18.67
2022-12-08T17:16:05.903Z,18.83
2022-12-08T17:18:33.726Z,20.27
2022-12-08T17:21:01.452Z,20.60
2022-12-08T17:23:30.530Z,20.10
2022-12-08T17:25:59.928Z,20.90
2022-12-08T17:28:51.971Z,20.52
2022-12-08T17:31:16.752Z,20.25
2022-12-08T17:33:45.859Z,21.33
2022-12-08T17:36:15.633Z,20.38
2022-12-08T17:38:45.115Z,20.85
2022-12-08T17:41:13.102Z,20.77
2022-12-08T17:43:41.233Z,21.35
2022-12-08T17:46:09.122Z,19.80
2022-12-08T17:48:37.210Z,22.00
2022-12-08T17:51:05.046Z,22.65
2022-12-08T17:53:37.258Z,22.50
2022-12-08T17:56:08.309Z,21.52
2022-12-08T17:58:36.211Z,22.48
2022-12-08T18:01:08.602Z,21.88
2022-12-08T18:03:36.534Z,21.13
2022-12-08T18:06:12.497Z,22.42
2022-12-08T18:08:40.844Z,22.20
2022-12-08T18:11:16.495Z,22.00
2022-12-08T18:13:44.564Z,22.40
2022-12-08T18:16:14.130Z,22.90
2022-12-08T18:18:42.368Z,21.80
2022-12-08T18:21:10.750Z,23.55
2022-12-08T18:23:39.791Z,21.52
2022-12-08T18:26:08.508Z,22.45
2022-12-08T18:28:38.355Z,24.63
2022-12-08T18:31:09.901Z,21.50
2022-12-08T18:33:38.234Z,23.30
2022-12-08T18:36:09.484Z,21.40
2022-12-08T18:38:38.144Z,24.83
2022-12-08T18:41:07.453Z,21.75
2022-12-08T18:43:35.503Z,21.60
2022-12-08T18:46:07.624Z,22.45
2022-12-08T18:48:35.831Z,22.33
2022-12-08T18:51:03.821Z,23.25
2022-12-08T18:53:32.302Z,23.98
2022-12-08T18:56:00.059Z,22.90
2022-12-08T18:58:27.794Z,21.52
2022-12-08T19:00:55.715Z,22.15
2022-12-08T19:03:25.226Z,22.05
2022-12-08T19:06:03.213Z,23.50
2022-12-08T19:08:31.642Z,24.42
2022-12-08T19:11:00.132Z,24.85
2022-12-08T19:13:28.458Z,26.17
2022-12-08T19:15:56.356Z,26.52
2022-12-08T19:18:25.543Z,26.70
2022-12-08T19:20:56.734Z,24.20
2022-12-08T19:23:24.571Z,25.92
2022-12-08T19:25:52.472Z,22.85
2022-12-08T19:28:20.328Z,23.00
2022-12-08T19:30:48.557Z,23.63
2022-12-08T19:33:16.884Z,23.75
2022-12-08T19:35:52.265Z,34.40
2022-12-08T19:38:20.650Z,46.42
2022-12-08T19:41:05.900Z,32.25
2022-12-08T19:43:51.315Z,32.08
2022-12-08T19:46:19.600Z,30.45
2022-12-08T19:48:47.499Z,26.33
2022-12-08T19:51:19.550Z,26.10
2022-12-08T19:53:47.943Z,23.63
2022-12-08T19:56:16.126Z,24.55
2022-12-08T19:58:43.994Z,25.48
2022-12-08T20:01:12.021Z,41.75
2022-12-08T20:03:40.225Z,35.63
2022-12-08T20:06:08.152Z,37.30
2022-12-08T20:08:37.409Z,35.78
2022-12-08T20:11:05.242Z,34.70
2022-12-08T20:13:43.795Z,34.30
2022-12-08T20:16:11.911Z,34.38
2022-12-08T20:18:40.861Z,32.92
2022-12-08T20:21:09.233Z,31.98
2022-12-08T20:23:38.616Z,30.42
2022-12-08T20:26:07.925Z,29.98
2022-12-08T20:28:36.135Z,30.83
2022-12-08T20:31:04.667Z,29.98
2022-12-08T20:33:32.951Z,28.48
2022-12-08T20:36:02.068Z,27.00
2022-12-08T20:38:30.181Z,27.23
2022-12-08T20:41:00.449Z,27.40
2022-12-08T20:43:28.368Z,25.92
2022-12-08T20:45:56.155Z,24.70
2022-12-08T20:48:24.818Z,25.17
2022-12-08T20:50:53.147Z,25.58
2022-12-08T20:53:20.950Z,24.88
2022-12-08T20:55:48.678Z,23.77
2022-12-08T20:58:18.113Z,25.92
2022-12-08T21:00:46.292Z,24.23
2022-12-08T21:03:15.434Z,23.38
2022-12-08T21:05:48.983Z,25.20
2022-12-08T21:08:17.259Z,23.77
2022-12-08T21:10:45.126Z,25.05
2022-12-08T21:13:13.016Z,24.30
2022-12-08T21:15:46.492Z,24.42
2022-12-08T21:18:14.773Z,24.45
2022-12-08T21:20:42.863Z,24.27
2022-12-08T21:23:11.387Z,22.60
2022-12-08T21:25:41.578Z,22.23
2022-12-08T21:28:09.638Z,22.92
2022-12-08T21:30:38.853Z,22.95
2022-12-08T21:33:08.293Z,22.20
2022-12-08T21:35:36.362Z,22.25
2022-12-08T21:38:06.110Z,21.95
2022-12-08T21:40:35.213Z,19.48
2022-12-08T21:43:03.808Z,20.23
2022-12-08T21:45:32.710Z,19.40
2022-12-08T21:48:04.367Z,20.50
2022-12-08T21:50:37.445Z,18.88
2022-12-08T21:53:05.543Z,20.92
2022-12-08T21:55:33.513Z,21.95
2022-12-08T21:58:02.209Z,23.60
2022-12-08T22:00:30.297Z,23.55
2022-12-08T22:02:58.803Z,23.85
2022-12-08T22:05:26.992Z,26.05
2022-12-08T22:07:56.400Z,25.05
2022-12-08T22:10:24.392Z,26.50
2022-12-08T22:12:52.309Z,28.27
2022-12-08T22:15:20.185Z,27.40
2022-12-08T22:17:48.163Z,29.80
2022-12-08T22:20:17.222Z,33.45
2022-12-08T22:22:45.592Z,39.33
2022-12-08T22:25:14.992Z,34.60
2022-12-08T22:27:43.101Z,35.33
2022-12-08T22:30:12.191Z,31.85
2022-12-08T22:32:40.350Z,33.45
2022-12-08T22:35:08.895Z,31.85
2022-12-08T22:37:36.599Z,28.73
2022-12-08T22:40:06.307Z,29.77
2022-12-08T22:42:35.720Z,28.50
2022-12-08T22:45:03.501Z,28.85
2022-12-08T22:47:31.250Z,27.50
2022-12-08T22:49:58.991Z,28.05
2022-12-08T22:52:26.970Z,29.15
2022-12-08T22:54:54.715Z,27.73
2022-12-08T23:03:20.127Z,28.38
2022-12-08T23:05:48.269Z,30.98
2022-12-08T23:08:18.016Z,29.08
2022-12-08T23:10:47.147Z,29.25
2022-12-08T23:13:16.242Z,30.15
2022-12-08T23:15:53.024Z,30.58
2022-12-08T23:18:22.097Z,28.27
2022-12-08T23:20:49.824Z,27.95
2022-12-08T23:23:17.784Z,28.20
2022-12-08T23:25:45.657Z,29.85
2022-12-08T23:28:14.023Z,28.77
2022-12-08T23:30:42.303Z,30.85
2022-12-08T23:33:10.082Z,28.33
2022-12-08T23:35:39.439Z,27.02
2022-12-08T23:38:09.444Z,26.27
2022-12-08T23:40:37.284Z,26.23
2022-12-08T23:43:05.967Z,24.38
2022-12-08T23:45:33.801Z,24.88
2022-12-08T23:48:01.877Z,27.08
2022-12-08T23:50:29.617Z,25.13
2022-12-08T23:52:58.949Z,24.60
2022-12-08T23:55:26.704Z,27.15
2022-12-08T23:57:54.459Z,26.88
